sensor_id;sensor_type;location;lat;lon;timestamp;temperature;humidity
25346;DHT22;13300;51.032;3.710;2023-05-07T00:00:41;17.70;99.90
25346;DHT22;13300;51.032;3.710;2023-05-07T00:03:08;17.60;99.90
25346;DHT22;13300;51.032;3.710;2023-05-07T00:05:33;17.60;99.90
25346;DHT22;13300;51.032;3.710;2023-05-07T00:07:59;17.60;99.90
25346;DHT22;13300;51.032;3.710;2023-05-07T00:10:25;17.60;99.90
25346;DHT22;13300;51.032;3.710;2023-05-07T00:12:51;17.60;99.90
25346;DHT22;13300;51.032;3.710;2023-05-07T00:15:17;17.60;99.90
25346;DHT22;13300;51.032;3.710;2023-05-07T00:17:42;17.60;99.90
25346;DHT22;13300;51.032;3.710;2023-05-07T00:20:08;17.70;99.90
25346;DHT22;13300;51.032;3.710;2023-05-07T00:22:34;17.80;99.90
25346;DHT22;13300;51.032;3.710;2023-05-07T00:25:00;17.70;99.90
25346;DHT22;13300;51.032;3.710;2023-05-07T00:27:26;17.70;99.90
25346;DHT22;13300;51.032;3.710;2023-05-07T00:29:52;17.60;99.90
25346;DHT22;13300;51.032;3.710;2023-05-07T00:32:17;17.50;99.90
25346;DHT22;13300;51.032;3.710;2023-05-07T00:34:43;17.50;99.90
25346;DHT22;13300;51.032;3.710;2023-05-07T00:37:09;17.40;99.90
25346;DHT22;13300;51.032;3.710;2023-05-07T00:39:35;17.40;99.90
25346;DHT22;13300;51.032;3.710;2023-05-07T00:42:01;17.50;99.90
25346;DHT22;13300;51.032;3.710;2023-05-07T00:44:28;17.40;99.90
25346;DHT22;13300;51.032;3.710;2023-05-07T00:46:56;17.50;99.90
25346;DHT22;13300;51.032;3.710;2023-05-07T00:49:26;17.50;99.90
25346;DHT22;13300;51.032;3.710;2023-05-07T00:51:56;17.60;99.90
25346;DHT22;13300;51.032;3.710;2023-05-07T00:54:22;17.70;99.90
25346;DHT22;13300;51.032;3.710;2023-05-07T00:56:48;17.90;99.90
25346;DHT22;13300;51.032;3.710;2023-05-07T00:59:13;17.90;99.90
25346;DHT22;13300;51.032;3.710;2023-05-07T01:01:39;17.90;99.90
25346;DHT22;13300;51.032;3.710;2023-05-07T01:04:05;18.10;99.90
25346;DHT22;13300;51.032;3.710;2023-05-07T01:06:32;17.90;99.90
25346;DHT22;13300;51.032;3.710;2023-05-07T01:08:58;17.80;99.90
25346;DHT22;13300;51.032;3.710;2023-05-07T01:11:25;17.80;99.90
25346;DHT22;13300;51.032;3.710;2023-05-07T01:13:51;17.90;99.90
25346;DHT22;13300;51.032;3.710;2023-05-07T01:16:17;17.90;99.90
25346;DHT22;13300;51.032;3.710;2023-05-07T01:18:43;17.90;99.90
25346;DHT22;13300;51.032;3.710;2023-05-07T01:21:11;17.90;99.90
25346;DHT22;13300;51.032;3.710;2023-05-07T01:23:38;17.80;99.90
25346;DHT22;13300;51.032;3.710;2023-05-07T01:26:05;17.70;99.90
25346;DHT22;13300;51.032;3.710;2023-05-07T01:28:31;17.70;99.90
25346;DHT22;13300;51.032;3.710;2023-05-07T01:31:01;17.60;99.90
25346;DHT22;13300;51.032;3.710;2023-05-07T01:33:31;17.60;99.90
25346;DHT22;13300;51.032;3.710;2023-05-07T01:35:57;17.60;99.90
25346;DHT22;13300;51.032;3.710;2023-05-07T01:38:26;17.60;99.90
25346;DHT22;13300;51.032;3.710;2023-05-07T01:40:52;17.70;99.90
25346;DHT22;13300;51.032;3.710;2023-05-07T01:43:19;17.60;99.90
25346;DHT22;13300;51.032;3.710;2023-05-07T01:45:46;17.50;99.90
25346;DHT22;13300;51.032;3.710;2023-05-07T01:48:14;17.50;99.90
25346;DHT22;13300;51.032;3.710;2023-05-07T01:50:42;17.40;99.90
25346;DHT22;13300;51.032;3.710;2023-05-07T01:53:08;17.40;99.90
25346;DHT22;13300;51.032;3.710;2023-05-07T01:55:34;17.50;99.90
25346;DHT22;13300;51.032;3.710;2023-05-07T01:57:59;17.50;99.90
25346;DHT22;13300;51.032;3.710;2023-05-07T02:00:25;17.50;99.90
25346;DHT22;13300;51.032;3.710;2023-05-07T02:02:51;17.40;99.90
25346;DHT22;13300;51.032;3.710;2023-05-07T02:05:18;17.50;99.90
25346;DHT22;13300;51.032;3.710;2023-05-07T02:07:43;17.50;99.90
25346;DHT22;13300;51.032;3.710;2023-05-07T02:10:09;17.50;99.90
25346;DHT22;13300;51.032;3.710;2023-05-07T02:12:35;17.50;99.90
25346;DHT22;13300;51.032;3.710;2023-05-07T02:15:01;17.40;99.90
25346;DHT22;13300;51.032;3.710;2023-05-07T02:17:27;17.40;99.90
25346;DHT22;13300;51.032;3.710;2023-05-07T02:19:57;17.40;99.90
25346;DHT22;13300;51.032;3.710;2023-05-07T02:22:22;17.30;99.90
25346;DHT22;13300;51.032;3.710;2023-05-07T02:24:48;17.30;99.90
25346;DHT22;13300;51.032;3.710;2023-05-07T02:27:14;17.30;99.90
25346;DHT22;13300;51.032;3.710;2023-05-07T02:29:40;17.30;99.90
25346;DHT22;13300;51.032;3.710;2023-05-07T02:32:06;17.30;99.90
25346;DHT22;13300;51.032;3.710;2023-05-07T02:34:31;17.30;99.90
25346;DHT22;13300;51.032;3.710;2023-05-07T02:36:57;17.20;99.90
25346;DHT22;13300;51.032;3.710;2023-05-07T02:39:23;17.20;99.90
25346;DHT22;13300;51.032;3.710;2023-05-07T02:41:49;17.10;99.90
25346;DHT22;13300;51.032;3.710;2023-05-07T02:44:14;17.00;99.90
25346;DHT22;13300;51.032;3.710;2023-05-07T02:46:40;16.90;99.90
25346;DHT22;13300;51.032;3.710;2023-05-07T02:49:06;16.70;99.90
25346;DHT22;13300;51.032;3.710;2023-05-07T02:51:31;16.70;99.90
25346;DHT22;13300;51.032;3.710;2023-05-07T02:53:57;16.90;99.90
25346;DHT22;13300;51.032;3.710;2023-05-07T02:56:25;17.00;99.90
25346;DHT22;13300;51.032;3.710;2023-05-07T02:58:51;17.10;99.90
25346;DHT22;13300;51.032;3.710;2023-05-07T03:01:16;17.10;99.90
25346;DHT22;13300;51.032;3.710;2023-05-07T03:03:45;17.20;99.90
25346;DHT22;13300;51.032;3.710;2023-05-07T03:06:11;17.30;99.90
25346;DHT22;13300;51.032;3.710;2023-05-07T03:08:36;17.40;99.90
25346;DHT22;13300;51.032;3.710;2023-05-07T03:11:02;17.30;99.90
25346;DHT22;13300;51.032;3.710;2023-05-07T03:13:28;17.20;99.90
25346;DHT22;13300;51.032;3.710;2023-05-07T03:15:54;17.10;99.90
25346;DHT22;13300;51.032;3.710;2023-05-07T03:18:20;17.10;99.90
25346;DHT22;13300;51.032;3.710;2023-05-07T03:20:48;17.10;99.90
25346;DHT22;13300;51.032;3.710;2023-05-07T03:23:14;17.10;99.90
25346;DHT22;13300;51.032;3.710;2023-05-07T03:25:39;17.20;99.90
25346;DHT22;13300;51.032;3.710;2023-05-07T03:28:05;17.20;99.90
25346;DHT22;13300;51.032;3.710;2023-05-07T03:30:31;17.30;99.90
25346;DHT22;13300;51.032;3.710;2023-05-07T03:32:56;17.30;99.90
25346;DHT22;13300;51.032;3.710;2023-05-07T03:35:22;17.40;99.90
25346;DHT22;13300;51.032;3.710;2023-05-07T03:37:48;17.40;99.90
25346;DHT22;13300;51.032;3.710;2023-05-07T03:40:13;17.40;99.90
25346;DHT22;13300;51.032;3.710;2023-05-07T03:42:39;17.50;99.90
25346;DHT22;13300;51.032;3.710;2023-05-07T03:45:05;17.40;99.90
25346;DHT22;13300;51.032;3.710;2023-05-07T03:47:31;17.50;99.90
25346;DHT22;13300;51.032;3.710;2023-05-07T03:49:57;17.50;99.90
25346;DHT22;13300;51.032;3.710;2023-05-07T03:52:23;17.50;99.90
25346;DHT22;13300;51.032;3.710;2023-05-07T03:54:52;17.50;99.90
25346;DHT22;13300;51.032;3.710;2023-05-07T03:57:18;17.40;99.90
25346;DHT22;13300;51.032;3.710;2023-05-07T03:59:43;17.40;99.90
25346;DHT22;13300;51.032;3.710;2023-05-07T04:02:09;17.40;99.90
25346;DHT22;13300;51.032;3.710;2023-05-07T04:04:35;17.40;99.90
25346;DHT22;13300;51.032;3.710;2023-05-07T04:07:01;17.40;99.90
25346;DHT22;13300;51.032;3.710;2023-05-07T04:09:26;17.40;99.90
25346;DHT22;13300;51.032;3.710;2023-05-07T04:11:52;17.40;99.90
25346;DHT22;13300;51.032;3.710;2023-05-07T04:14:18;17.40;99.90
25346;DHT22;13300;51.032;3.710;2023-05-07T04:16:44;17.40;99.90
25346;DHT22;13300;51.032;3.710;2023-05-07T04:19:09;17.40;99.90
25346;DHT22;13300;51.032;3.710;2023-05-07T04:21:35;17.50;99.90
25346;DHT22;13300;51.032;3.710;2023-05-07T04:24:03;17.50;99.90
25346;DHT22;13300;51.032;3.710;2023-05-07T04:26:29;17.50;99.90
25346;DHT22;13300;51.032;3.710;2023-05-07T04:28:55;17.50;99.90
25346;DHT22;13300;51.032;3.710;2023-05-07T04:31:38;17.50;99.90
25346;DHT22;13300;51.032;3.710;2023-05-07T04:34:04;17.50;99.90
25346;DHT22;13300;51.032;3.710;2023-05-07T04:36:30;17.50;99.90
25346;DHT22;13300;51.032;3.710;2023-05-07T04:38:58;17.50;99.90
25346;DHT22;13300;51.032;3.710;2023-05-07T04:41:24;17.50;99.90
25346;DHT22;13300;51.032;3.710;2023-05-07T04:43:50;17.50;99.90
25346;DHT22;13300;51.032;3.710;2023-05-07T04:46:16;17.40;99.90
25346;DHT22;13300;51.032;3.710;2023-05-07T04:48:42;17.50;99.90
25346;DHT22;13300;51.032;3.710;2023-05-07T04:51:08;17.50;99.90
25346;DHT22;13300;51.032;3.710;2023-05-07T04:53:34;17.50;99.90
25346;DHT22;13300;51.032;3.710;2023-05-07T04:55:59;17.50;99.90
25346;DHT22;13300;51.032;3.710;2023-05-07T04:58:25;17.60;99.90
25346;DHT22;13300;51.032;3.710;2023-05-07T05:00:54;17.60;99.90
25346;DHT22;13300;51.032;3.710;2023-05-07T05:03:20;17.60;99.90
25346;DHT22;13300;51.032;3.710;2023-05-07T05:05:45;17.70;99.90
25346;DHT22;13300;51.032;3.710;2023-05-07T05:08:11;17.50;99.90
25346;DHT22;13300;51.032;3.710;2023-05-07T05:10:37;17.40;99.90
25346;DHT22;13300;51.032;3.710;2023-05-07T05:13:02;17.40;99.90
25346;DHT22;13300;51.032;3.710;2023-05-07T05:15:28;17.00;99.90
25346;DHT22;13300;51.032;3.710;2023-05-07T05:17:54;17.00;99.90
25346;DHT22;13300;51.032;3.710;2023-05-07T05:20:20;16.80;99.90
25346;DHT22;13300;51.032;3.710;2023-05-07T05:22:45;16.40;99.90
25346;DHT22;13300;51.032;3.710;2023-05-07T05:25:11;16.30;99.90
25346;DHT22;13300;51.032;3.710;2023-05-07T05:27:37;16.00;99.90
25346;DHT22;13300;51.032;3.710;2023-05-07T05:30:04;15.90;99.90
25346;DHT22;13300;51.032;3.710;2023-05-07T05:32:31;16.10;99.90
25346;DHT22;13300;51.032;3.710;2023-05-07T05:34:57;16.30;99.90
25346;DHT22;13300;51.032;3.710;2023-05-07T05:37:23;16.10;99.90
25346;DHT22;13300;51.032;3.710;2023-05-07T05:39:49;15.90;99.90
25346;DHT22;13300;51.032;3.710;2023-05-07T05:42:14;16.00;99.90
25346;DHT22;13300;51.032;3.710;2023-05-07T05:44:40;15.80;99.90
25346;DHT22;13300;51.032;3.710;2023-05-07T05:47:06;15.80;99.90
25346;DHT22;13300;51.032;3.710;2023-05-07T05:49:32;16.00;99.90
25346;DHT22;13300;51.032;3.710;2023-05-07T05:51:57;16.00;99.90
25346;DHT22;13300;51.032;3.710;2023-05-07T05:54:23;16.20;99.90
25346;DHT22;13300;51.032;3.710;2023-05-07T05:56:49;16.20;99.90
25346;DHT22;13300;51.032;3.710;2023-05-07T05:59:15;16.30;99.90
25346;DHT22;13300;51.032;3.710;2023-05-07T06:01:41;16.30;99.90
25346;DHT22;13300;51.032;3.710;2023-05-07T06:04:07;16.10;99.90
25346;DHT22;13300;51.032;3.710;2023-05-07T06:06:32;16.00;99.90
25346;DHT22;13300;51.032;3.710;2023-05-07T06:08:58;15.80;99.90
25346;DHT22;13300;51.032;3.710;2023-05-07T06:11:24;15.80;99.90
25346;DHT22;13300;51.032;3.710;2023-05-07T06:13:50;15.80;99.90
25346;DHT22;13300;51.032;3.710;2023-05-07T06:16:16;15.90;99.90
25346;DHT22;13300;51.032;3.710;2023-05-07T06:18:42;16.00;99.90
25346;DHT22;13300;51.032;3.710;2023-05-07T06:21:09;16.10;99.90
25346;DHT22;13300;51.032;3.710;2023-05-07T06:23:37;15.90;99.90
25346;DHT22;13300;51.032;3.710;2023-05-07T06:26:06;16.10;99.90
25346;DHT22;13300;51.032;3.710;2023-05-07T06:28:32;16.00;99.90
25346;DHT22;13300;51.032;3.710;2023-05-07T06:31:19;15.80;99.90
25346;DHT22;13300;51.032;3.710;2023-05-07T06:33:48;15.90;99.90
25346;DHT22;13300;51.032;3.710;2023-05-07T06:36:14;15.90;99.90
25346;DHT22;13300;51.032;3.710;2023-05-07T06:38:40;15.90;99.90
25346;DHT22;13300;51.032;3.710;2023-05-07T06:41:06;15.90;99.90
25346;DHT22;13300;51.032;3.710;2023-05-07T06:43:33;15.80;99.90
25346;DHT22;13300;51.032;3.710;2023-05-07T06:45:58;15.90;99.90
25346;DHT22;13300;51.032;3.710;2023-05-07T06:48:24;15.80;99.90
25346;DHT22;13300;51.032;3.710;2023-05-07T06:50:50;15.70;99.90
25346;DHT22;13300;51.032;3.710;2023-05-07T06:53:18;15.70;99.90
25346;DHT22;13300;51.032;3.710;2023-05-07T06:55:44;15.60;99.90
25346;DHT22;13300;51.032;3.710;2023-05-07T06:58:12;15.70;99.90
25346;DHT22;13300;51.032;3.710;2023-05-07T07:00:38;15.80;99.90
25346;DHT22;13300;51.032;3.710;2023-05-07T07:03:04;15.80;99.90
25346;DHT22;13300;51.032;3.710;2023-05-07T07:05:34;15.90;99.90
25346;DHT22;13300;51.032;3.710;2023-05-07T07:08:00;16.00;99.90
25346;DHT22;13300;51.032;3.710;2023-05-07T07:10:38;16.10;99.90
25346;DHT22;13300;51.032;3.710;2023-05-07T07:13:12;16.30;99.90
25346;DHT22;13300;51.032;3.710;2023-05-07T07:15:54;16.10;99.90
25346;DHT22;13300;51.032;3.710;2023-05-07T07:18:29;15.80;99.90
25346;DHT22;13300;51.032;3.710;2023-05-07T07:20:55;15.90;99.90
25346;DHT22;13300;51.032;3.710;2023-05-07T07:26:19;16.10;99.90
25346;DHT22;13300;51.032;3.710;2023-05-07T07:29:07;16.10;99.90
25346;DHT22;13300;51.032;3.710;2023-05-07T07:31:32;16.10;99.90
25346;DHT22;13300;51.032;3.710;2023-05-07T07:33:58;16.10;99.90
25346;DHT22;13300;51.032;3.710;2023-05-07T07:36:24;16.20;99.90
25346;DHT22;13300;51.032;3.710;2023-05-07T07:38:51;15.90;99.90
25346;DHT22;13300;51.032;3.710;2023-05-07T07:41:17;15.80;99.90
25346;DHT22;13300;51.032;3.710;2023-05-07T07:43:42;15.80;99.90
25346;DHT22;13300;51.032;3.710;2023-05-07T07:46:08;16.00;99.90
25346;DHT22;13300;51.032;3.710;2023-05-07T07:48:34;16.10;99.90
25346;DHT22;13300;51.032;3.710;2023-05-07T07:50:59;15.90;99.90
25346;DHT22;13300;51.032;3.710;2023-05-07T07:53:25;15.70;99.90
25346;DHT22;13300;51.032;3.710;2023-05-07T07:55:51;15.60;99.90
25346;DHT22;13300;51.032;3.710;2023-05-07T07:58:16;15.80;99.90
25346;DHT22;13300;51.032;3.710;2023-05-07T08:00:42;15.70;99.90
25346;DHT22;13300;51.032;3.710;2023-05-07T08:03:11;15.70;99.90
25346;DHT22;13300;51.032;3.710;2023-05-07T08:05:37;16.00;99.90
25346;DHT22;13300;51.032;3.710;2023-05-07T08:08:04;15.80;99.90
25346;DHT22;13300;51.032;3.710;2023-05-07T08:10:30;15.90;99.90
25346;DHT22;13300;51.032;3.710;2023-05-07T08:12:59;16.00;99.90
25346;DHT22;13300;51.032;3.710;2023-05-07T08:15:24;16.10;99.90
25346;DHT22;13300;51.032;3.710;2023-05-07T08:17:50;16.00;99.90
25346;DHT22;13300;51.032;3.710;2023-05-07T08:20:16;15.80;99.90
25346;DHT22;13300;51.032;3.710;2023-05-07T08:22:41;15.80;99.90
25346;DHT22;13300;51.032;3.710;2023-05-07T08:25:07;16.00;99.90
25346;DHT22;13300;51.032;3.710;2023-05-07T08:27:34;16.30;99.90
25346;DHT22;13300;51.032;3.710;2023-05-07T08:29:59;16.50;99.90
25346;DHT22;13300;51.032;3.710;2023-05-07T08:32:25;16.70;99.90
25346;DHT22;13300;51.032;3.710;2023-05-07T08:34:51;16.60;99.90
25346;DHT22;13300;51.032;3.710;2023-05-07T08:37:17;16.70;99.90
25346;DHT22;13300;51.032;3.710;2023-05-07T08:39:42;16.60;99.90
25346;DHT22;13300;51.032;3.710;2023-05-07T08:42:09;16.60;99.90
25346;DHT22;13300;51.032;3.710;2023-05-07T08:44:38;16.80;99.90
25346;DHT22;13300;51.032;3.710;2023-05-07T08:49:47;16.80;99.90
25346;DHT22;13300;51.032;3.710;2023-05-07T08:52:16;16.60;99.90
25346;DHT22;13300;51.032;3.710;2023-05-07T08:54:45;16.40;99.90
25346;DHT22;13300;51.032;3.710;2023-05-07T08:57:13;16.50;99.90
25346;DHT22;13300;51.032;3.710;2023-05-07T08:59:40;16.80;99.90
25346;DHT22;13300;51.032;3.710;2023-05-07T09:02:10;17.10;99.90
25346;DHT22;13300;51.032;3.710;2023-05-07T09:04:39;17.40;99.90
25346;DHT22;13300;51.032;3.710;2023-05-07T09:07:05;17.60;99.90
25346;DHT22;13300;51.032;3.710;2023-05-07T09:09:32;17.60;99.90
25346;DHT22;13300;51.032;3.710;2023-05-07T09:11:59;17.70;99.90
25346;DHT22;13300;51.032;3.710;2023-05-07T09:14:25;17.50;99.90
25346;DHT22;13300;51.032;3.710;2023-05-07T09:17:00;17.60;99.90
25346;DHT22;13300;51.032;3.710;2023-05-07T09:19:29;17.80;99.90
25346;DHT22;13300;51.032;3.710;2023-05-07T09:22:02;17.90;99.90
25346;DHT22;13300;51.032;3.710;2023-05-07T09:24:31;18.00;99.90
25346;DHT22;13300;51.032;3.710;2023-05-07T09:27:09;17.90;99.90
25346;DHT22;13300;51.032;3.710;2023-05-07T09:29:38;17.40;99.90
25346;DHT22;13300;51.032;3.710;2023-05-07T09:32:10;17.40;99.90
25346;DHT22;13300;51.032;3.710;2023-05-07T09:34:58;17.70;99.90
25346;DHT22;13300;51.032;3.710;2023-05-07T09:37:27;17.80;99.90
25346;DHT22;13300;51.032;3.710;2023-05-07T09:40:02;18.00;99.90
25346;DHT22;13300;51.032;3.710;2023-05-07T09:42:29;18.00;99.90
25346;DHT22;13300;51.032;3.710;2023-05-07T09:44:54;17.80;99.90
25346;DHT22;13300;51.032;3.710;2023-05-07T09:47:23;17.60;99.90
25346;DHT22;13300;51.032;3.710;2023-05-07T09:49:56;17.40;99.90
25346;DHT22;13300;51.032;3.710;2023-05-07T09:52:24;17.90;99.90
25346;DHT22;13300;51.032;3.710;2023-05-07T09:54:57;18.30;99.90
25346;DHT22;13300;51.032;3.710;2023-05-07T09:57:26;18.40;99.90
25346;DHT22;13300;51.032;3.710;2023-05-07T09:59:53;18.40;99.90
25346;DHT22;13300;51.032;3.710;2023-05-07T10:02:20;18.50;99.90
25346;DHT22;13300;51.032;3.710;2023-05-07T10:04:48;18.60;99.90
25346;DHT22;13300;51.032;3.710;2023-05-07T10:07:16;18.30;99.90
25346;DHT22;13300;51.032;3.710;2023-05-07T10:09:42;18.50;99.90
25346;DHT22;13300;51.032;3.710;2023-05-07T10:12:10;18.70;99.90
25346;DHT22;13300;51.032;3.710;2023-05-07T10:14:36;18.70;99.90
25346;DHT22;13300;51.032;3.710;2023-05-07T10:17:02;18.60;99.90
25346;DHT22;13300;51.032;3.710;2023-05-07T10:19:29;18.70;99.90
25346;DHT22;13300;51.032;3.710;2023-05-07T10:21:58;18.80;99.90
25346;DHT22;13300;51.032;3.710;2023-05-07T10:24:32;18.80;99.90
25346;DHT22;13300;51.032;3.710;2023-05-07T10:27:11;18.80;99.90
25346;DHT22;13300;51.032;3.710;2023-05-07T10:32:55;19.00;99.90
25346;DHT22;13300;51.032;3.710;2023-05-07T10:35:27;18.80;99.90
25346;DHT22;13300;51.032;3.710;2023-05-07T10:37:55;19.10;99.90
25346;DHT22;13300;51.032;3.710;2023-05-07T10:40:21;19.30;99.90
25346;DHT22;13300;51.032;3.710;2023-05-07T10:42:56;19.50;99.90
25346;DHT22;13300;51.032;3.710;2023-05-07T10:45:23;19.80;99.90
25346;DHT22;13300;51.032;3.710;2023-05-07T10:48:14;19.80;99.90
25346;DHT22;13300;51.032;3.710;2023-05-07T10:50:42;19.70;99.90
25346;DHT22;13300;51.032;3.710;2023-05-07T10:55:45;19.50;99.90
25346;DHT22;13300;51.032;3.710;2023-05-07T11:00:46;19.50;99.90
25346;DHT22;13300;51.032;3.710;2023-05-07T11:03:12;19.90;99.90
25346;DHT22;13300;51.032;3.710;2023-05-07T11:05:40;20.00;99.90
25346;DHT22;13300;51.032;3.710;2023-05-07T11:08:07;19.80;99.90
25346;DHT22;13300;51.032;3.710;2023-05-07T11:10:59;19.30;99.90
25346;DHT22;13300;51.032;3.710;2023-05-07T11:13:44;19.20;99.90
25346;DHT22;13300;51.032;3.710;2023-05-07T11:16:28;19.20;99.90
25346;DHT22;13300;51.032;3.710;2023-05-07T11:18:56;19.30;99.90
25346;DHT22;13300;51.032;3.710;2023-05-07T11:21:40;19.50;99.90
25346;DHT22;13300;51.032;3.710;2023-05-07T11:24:10;19.60;99.90
25346;DHT22;13300;51.032;3.710;2023-05-07T11:26:58;19.50;99.90
25346;DHT22;13300;51.032;3.710;2023-05-07T11:29:25;19.90;99.90
25346;DHT22;13300;51.032;3.710;2023-05-07T11:31:54;19.60;99.90
25346;DHT22;13300;51.032;3.710;2023-05-07T11:34:25;19.90;99.90
25346;DHT22;13300;51.032;3.710;2023-05-07T11:36:52;20.30;99.90
25346;DHT22;13300;51.032;3.710;2023-05-07T11:39:29;20.40;99.90
25346;DHT22;13300;51.032;3.710;2023-05-07T11:41:55;20.60;99.90
25346;DHT22;13300;51.032;3.710;2023-05-07T11:44:21;20.70;99.90
25346;DHT22;13300;51.032;3.710;2023-05-07T11:46:47;21.10;99.90
25346;DHT22;13300;51.032;3.710;2023-05-07T11:49:13;21.00;99.90
25346;DHT22;13300;51.032;3.710;2023-05-07T11:51:42;20.70;99.90
25346;DHT22;13300;51.032;3.710;2023-05-07T11:54:08;20.20;99.90
25346;DHT22;13300;51.032;3.710;2023-05-07T11:56:36;20.30;99.90
25346;DHT22;13300;51.032;3.710;2023-05-07T11:59:03;20.80;99.90
25346;DHT22;13300;51.032;3.710;2023-05-07T12:01:31;20.90;99.90
25346;DHT22;13300;51.032;3.710;2023-05-07T12:03:57;21.40;99.90
25346;DHT22;13300;51.032;3.710;2023-05-07T12:06:23;21.90;99.90
25346;DHT22;13300;51.032;3.710;2023-05-07T12:08:48;22.40;99.90
25346;DHT22;13300;51.032;3.710;2023-05-07T12:11:16;22.60;99.90
25346;DHT22;13300;51.032;3.710;2023-05-07T12:13:47;22.80;99.90
25346;DHT22;13300;51.032;3.710;2023-05-07T12:16:13;22.50;99.90
25346;DHT22;13300;51.032;3.710;2023-05-07T12:18:40;22.20;99.90
25346;DHT22;13300;51.032;3.710;2023-05-07T12:21:06;22.70;99.90
25346;DHT22;13300;51.032;3.710;2023-05-07T12:23:34;23.00;99.90
25346;DHT22;13300;51.032;3.710;2023-05-07T12:26:08;22.80;99.90
25346;DHT22;13300;51.032;3.710;2023-05-07T12:28:37;22.70;99.90
25346;DHT22;13300;51.032;3.710;2023-05-07T12:31:04;22.50;99.90
25346;DHT22;13300;51.032;3.710;2023-05-07T12:33:31;22.50;99.90
25346;DHT22;13300;51.032;3.710;2023-05-07T12:36:03;22.50;99.90
25346;DHT22;13300;51.032;3.710;2023-05-07T12:38:37;22.40;99.90
25346;DHT22;13300;51.032;3.710;2023-05-07T12:41:04;23.30;99.90
25346;DHT22;13300;51.032;3.710;2023-05-07T12:43:30;23.50;99.90
25346;DHT22;13300;51.032;3.710;2023-05-07T12:46:06;23.60;99.90
25346;DHT22;13300;51.032;3.710;2023-05-07T12:48:33;23.80;99.90
25346;DHT22;13300;51.032;3.710;2023-05-07T12:51:02;23.90;99.90
25346;DHT22;13300;51.032;3.710;2023-05-07T12:53:29;23.60;99.90
25346;DHT22;13300;51.032;3.710;2023-05-07T12:55:57;24.00;99.90
25346;DHT22;13300;51.032;3.710;2023-05-07T12:58:28;24.40;99.90
25346;DHT22;13300;51.032;3.710;2023-05-07T13:01:00;24.60;99.90
25346;DHT22;13300;51.032;3.710;2023-05-07T13:03:29;24.80;99.90
25346;DHT22;13300;51.032;3.710;2023-05-07T13:06:13;24.60;99.90
25346;DHT22;13300;51.032;3.710;2023-05-07T13:08:41;24.00;99.90
25346;DHT22;13300;51.032;3.710;2023-05-07T13:11:11;24.00;99.90
25346;DHT22;13300;51.032;3.710;2023-05-07T13:13:39;24.10;99.90
25346;DHT22;13300;51.032;3.710;2023-05-07T13:16:06;24.20;99.90
25346;DHT22;13300;51.032;3.710;2023-05-07T13:18:33;24.30;99.90
25346;DHT22;13300;51.032;3.710;2023-05-07T13:20:59;24.40;99.90
25346;DHT22;13300;51.032;3.710;2023-05-07T13:23:27;24.70;99.90
25346;DHT22;13300;51.032;3.710;2023-05-07T13:25:53;25.00;99.90
25346;DHT22;13300;51.032;3.710;2023-05-07T13:28:22;25.00;99.90
25346;DHT22;13300;51.032;3.710;2023-05-07T13:30:48;23.60;99.90
25346;DHT22;13300;51.032;3.710;2023-05-07T13:33:14;23.70;99.90
25346;DHT22;13300;51.032;3.710;2023-05-07T13:35:41;24.20;99.90
25346;DHT22;13300;51.032;3.710;2023-05-07T13:38:07;24.50;99.90
25346;DHT22;13300;51.032;3.710;2023-05-07T13:40:33;25.10;99.90
25346;DHT22;13300;51.032;3.710;2023-05-07T13:42:59;25.70;99.90
25346;DHT22;13300;51.032;3.710;2023-05-07T13:45:28;25.40;99.90
25346;DHT22;13300;51.032;3.710;2023-05-07T13:47:55;25.60;99.90
25346;DHT22;13300;51.032;3.710;2023-05-07T13:50:21;25.40;99.90
25346;DHT22;13300;51.032;3.710;2023-05-07T13:53:03;25.40;99.90
25346;DHT22;13300;51.032;3.710;2023-05-07T13:55:29;24.10;99.90
25346;DHT22;13300;51.032;3.710;2023-05-07T13:57:59;23.80;99.90
25346;DHT22;13300;51.032;3.710;2023-05-07T14:00:27;23.30;99.90
25346;DHT22;13300;51.032;3.710;2023-05-07T14:02:53;23.20;99.90
25346;DHT22;13300;51.032;3.710;2023-05-07T14:05:19;23.20;99.90
25346;DHT22;13300;51.032;3.710;2023-05-07T14:07:44;23.00;99.90
25346;DHT22;13300;51.032;3.710;2023-05-07T14:10:10;22.70;99.90
25346;DHT22;13300;51.032;3.710;2023-05-07T14:12:36;22.20;99.90
25346;DHT22;13300;51.032;3.710;2023-05-07T14:15:05;22.00;99.90
25346;DHT22;13300;51.032;3.710;2023-05-07T14:17:31;21.80;99.90
25346;DHT22;13300;51.032;3.710;2023-05-07T14:19:57;21.70;99.90
25346;DHT22;13300;51.032;3.710;2023-05-07T14:22:25;21.60;99.90
25346;DHT22;13300;51.032;3.710;2023-05-07T14:24:51;21.30;99.90
25346;DHT22;13300;51.032;3.710;2023-05-07T14:27:17;20.80;99.90
25346;DHT22;13300;51.032;3.710;2023-05-07T14:29:43;20.30;99.90
25346;DHT22;13300;51.032;3.710;2023-05-07T14:32:08;20.10;99.90
25346;DHT22;13300;51.032;3.710;2023-05-07T14:34:34;20.00;99.90
25346;DHT22;13300;51.032;3.710;2023-05-07T14:37:00;19.90;99.90
25346;DHT22;13300;51.032;3.710;2023-05-07T14:39:27;19.80;99.90
25346;DHT22;13300;51.032;3.710;2023-05-07T14:41:53;19.80;99.90
25346;DHT22;13300;51.032;3.710;2023-05-07T14:44:20;19.60;99.90
25346;DHT22;13300;51.032;3.710;2023-05-07T14:46:46;19.50;99.90
25346;DHT22;13300;51.032;3.710;2023-05-07T14:49:12;19.40;99.90
25346;DHT22;13300;51.032;3.710;2023-05-07T14:51:45;19.30;99.90
25346;DHT22;13300;51.032;3.710;2023-05-07T14:54:12;19.10;99.90
25346;DHT22;13300;51.032;3.710;2023-05-07T14:56:41;18.90;99.90
25346;DHT22;13300;51.032;3.710;2023-05-07T14:59:07;18.90;99.90
25346;DHT22;13300;51.032;3.710;2023-05-07T15:01:37;19.00;99.90
25346;DHT22;13300;51.032;3.710;2023-05-07T15:04:03;19.10;99.90
25346;DHT22;13300;51.032;3.710;2023-05-07T15:06:29;19.10;99.90
25346;DHT22;13300;51.032;3.710;2023-05-07T15:08:55;19.20;99.90
25346;DHT22;13300;51.032;3.710;2023-05-07T15:11:21;19.40;99.90
25346;DHT22;13300;51.032;3.710;2023-05-07T15:13:50;19.50;99.90
25346;DHT22;13300;51.032;3.710;2023-05-07T15:16:15;19.60;99.90
25346;DHT22;13300;51.032;3.710;2023-05-07T15:18:42;19.80;99.90
25346;DHT22;13300;51.032;3.710;2023-05-07T15:21:11;20.00;99.90
25346;DHT22;13300;51.032;3.710;2023-05-07T15:23:37;20.00;99.90
25346;DHT22;13300;51.032;3.710;2023-05-07T15:26:03;20.30;99.90
25346;DHT22;13300;51.032;3.710;2023-05-07T15:28:29;20.40;99.90
25346;DHT22;13300;51.032;3.710;2023-05-07T15:30:58;20.50;99.90
25346;DHT22;13300;51.032;3.710;2023-05-07T15:33:24;20.50;99.90
25346;DHT22;13300;51.032;3.710;2023-05-07T15:35:52;20.40;99.90
25346;DHT22;13300;51.032;3.710;2023-05-07T15:38:31;20.30;99.90
25346;DHT22;13300;51.032;3.710;2023-05-07T15:41:06;20.50;99.90
25346;DHT22;13300;51.032;3.710;2023-05-07T15:43:47;20.60;99.90
25346;DHT22;13300;51.032;3.710;2023-05-07T15:46:20;20.70;99.90